Time;durP1;ratioP1;P1;durP2;ratioP2;P2;SDS_P1;SDS_P2;PMS_P1;PMS_P2;Temp;Humidity;BMP_temperature;BMP_pressure;BME280_temperature;BME280_humidity;BME280_pressure;Samples;Min_cycle;Max_cycle;Signal;HPM_P1;HPM_P2
2023/04/09 00:01:08;;;;;;;42.13;18.10;;;8.00;99.90;;;;;;5073407;28;20417;-73
2023/04/09 00:03:35;;;;;;;52.70;20.73;;;8.10;99.90;;;;;;5073870;28;20039;-73
2023/04/09 00:06:01;;;;;;;49.67;20.83;;;8.30;99.90;;;;;;5073209;28;20062;-72
2023/04/09 00:08:27;;;;;;;49.75;20.60;;;8.30;99.90;;;;;;5073260;28;20032;-73
2023/04/09 00:10:53;;;;;;;50.10;20.77;;;8.40;99.90;;;;;;5071938;28;20029;-73
2023/04/09 00:13:19;;;;;;;57.70;21.13;;;8.40;99.90;;;;;;5073138;28;20024;-74
2023/04/09 00:15:46;;;;;;;52.67;21.08;;;8.30;99.90;;;;;;5073378;28;20539;-72
2023/04/09 00:18:12;;;;;;;51.42;20.50;;;8.10;99.90;;;;;;5073248;28;20370;-73
2023/04/09 00:20:38;;;;;;;49.28;19.17;;;8.10;99.90;;;;;;5072712;28;20029;-74
2023/04/09 00:23:04;;;;;;;48.38;19.67;;;8.00;99.90;;;;;;5071673;28;20136;-74
2023/04/09 00:25:30;;;;;;;49.75;19.98;;;8.10;99.90;;;;;;5074064;28;20028;-74
2023/04/09 00:27:56;;;;;;;46.00;19.27;;;8.30;99.90;;;;;;5072868;28;20130;-74
2023/04/09 00:30:22;;;;;;;49.92;21.88;;;8.20;99.90;;;;;;5072909;28;20071;-74
2023/04/09 00:32:48;;;;;;;41.67;19.15;;;8.20;99.90;;;;;;5072086;28;20351;-73
2023/04/09 00:35:15;;;;;;;42.20;18.70;;;8.30;99.90;;;;;;5071933;28;20056;-73
2023/04/09 00:37:40;;;;;;;48.60;18.90;;;8.30;99.90;;;;;;5073344;28;20033;-73
2023/04/09 00:40:06;;;;;;;45.78;19.40;;;8.10;99.90;;;;;;5073438;28;20382;-73
2023/04/09 00:42:33;;;;;;;43.25;18.75;;;8.00;99.90;;;;;;5072891;28;20454;-74
2023/04/09 00:44:59;;;;;;;45.47;18.25;;;8.00;99.90;;;;;;5072510;28;20033;-74
2023/04/09 00:47:30;;;;;;;50.65;20.20;;;8.20;99.90;;;;;;5072594;28;20111;-73
2023/04/09 00:49:56;;;;;;;43.40;18.85;;;8.30;99.90;;;;;;5072186;28;20152;-74
2023/04/09 00:52:23;;;;;;;51.53;20.75;;;8.30;99.90;;;;;;5072111;28;20104;-73
2023/04/09 00:54:50;;;;;;;48.65;19.48;;;8.30;99.90;;;;;;5072159;28;20194;-74
2023/04/09 00:57:16;;;;;;;53.40;19.85;;;8.20;99.90;;;;;;5072756;28;20060;-73
2023/04/09 00:59:43;;;;;;;48.65;19.55;;;8.10;99.90;;;;;;5072124;28;20033;-73
2023/04/09 01:02:09;;;;;;;48.63;18.30;;;8.10;99.90;;;;;;5072195;28;20126;-73
2023/04/09 01:04:35;;;;;;;49.88;19.15;;;8.00;99.90;;;;;;5072215;28;20040;-73
2023/04/09 01:07:09;;;;;;;47.90;19.70;;;8.00;99.90;;;;;;5071786;28;20032;-73
2023/04/09 01:09:40;;;;;;;50.95;18.35;;;8.00;99.90;;;;;;5072384;28;20125;-73
2023/04/09 01:12:05;;;;;;;45.78;19.52;;;7.90;99.90;;;;;;5071647;28;20098;-72
2023/04/09 01:14:42;;;;;;;50.80;19.92;;;7.90;99.90;;;;;;5071592;28;20040;-74
2023/04/09 01:17:29;;;;;;;44.55;19.05;;;8.10;99.90;;;;;;5071416;28;20037;-73
2023/04/09 01:20:03;;;;;;;50.00;18.67;;;8.10;99.90;;;;;;5070698;28;20028;-74
2023/04/09 01:22:41;;;;;;;44.13;19.25;;;8.20;99.90;;;;;;5071411;28;20431;-74
2023/04/09 01:25:28;;;;;;;45.95;19.40;;;8.20;99.90;;;;;;5071636;28;20024;-74
2023/04/09 01:28:12;;;;;;;53.08;20.55;;;8.30;99.90;;;;;;5072157;28;20088;-75
2023/04/09 01:30:40;;;;;;;46.45;19.33;;;8.30;99.90;;;;;;5070622;28;20045;-74
2023/04/09 01:33:07;;;;;;;44.38;18.88;;;8.30;99.90;;;;;;5071468;28;20067;-74
2023/04/09 01:35:33;;;;;;;50.40;20.30;;;8.20;99.90;;;;;;5076779;28;20396;-73
2023/04/09 01:38:00;;;;;;;51.10;20.67;;;8.20;99.90;;;;;;5091238;28;20061;-74
2023/04/09 01:40:25;;;;;;;47.58;19.40;;;8.20;99.90;;;;;;5090307;28;20036;-73
2023/04/09 01:42:53;;;;;;;50.40;21.25;;;8.00;99.90;;;;;;5090803;28;20044;-74
2023/04/09 01:45:19;;;;;;;46.17;20.70;;;8.00;99.90;;;;;;5091449;28;20031;-73
2023/04/09 01:47:45;;;;;;;49.50;20.05;;;8.10;99.90;;;;;;5091365;28;20021;-74
2023/04/09 01:50:11;;;;;;;45.88;19.55;;;8.00;99.90;;;;;;5090075;28;20090;-73
2023/04/09 01:52:37;;;;;;;45.50;20.95;;;8.00;99.90;;;;;;5091098;28;20028;-72
2023/04/09 01:55:03;;;;;;;44.33;20.23;;;8.20;99.90;;;;;;5090777;28;20114;-72
2023/04/09 01:57:30;;;;;;;44.10;21.10;;;8.00;99.90;;;;;;5091518;28;20031;-72
2023/04/09 01:59:55;;;;;;;40.90;19.83;;;7.90;99.90;;;;;;5091353;28;20372;-72
2023/04/09 02:02:31;;;;;;;50.85;21.27;;;7.80;99.90;;;;;;5091478;28;20489;-74
2023/04/09 02:05:00;;;;;;;41.42;18.90;;;7.70;99.90;;;;;;5090910;28;20100;-71
2023/04/09 02:07:37;;;;;;;43.65;19.55;;;7.70;99.90;;;;;;5090703;28;20020;-72
2023/04/09 02:10:05;;;;;;;43.08;18.83;;;7.80;99.90;;;;;;5090664;28;20120;-74
2023/04/09 02:12:32;;;;;;;;;;;7.60;99.90;;;;;;5091884;28;20020;-72
2023/04/09 02:14:59;;;;;;;45.00;18.63;;;7.60;99.90;;;;;;5090840;28;19916;-72
2023/04/09 02:17:25;;;;;;;42.38;19.50;;;7.40;99.90;;;;;;5089586;28;20032;-73
2023/04/09 02:19:51;;;;;;;39.90;17.98;;;7.40;99.90;;;;;;5090962;28;20251;-74
2023/04/09 02:22:17;;;;;;;38.78;18.88;;;7.30;99.90;;;;;;5089596;28;20038;-74
2023/04/09 02:24:45;;;;;;;42.90;19.00;;;7.30;99.90;;;;;;5090958;28;20477;-73
2023/04/09 02:27:11;;;;;;;38.35;18.95;;;7.30;99.90;;;;;;5091085;28;20044;-74
2023/04/09 02:29:41;;;;;;;44.72;19.13;;;7.30;99.90;;;;;;5090682;28;20438;-75
2023/04/09 02:32:07;;;;;;;36.67;17.42;;;7.20;99.90;;;;;;5090666;28;20336;-74
2023/04/09 02:34:33;;;;;;;40.85;19.45;;;7.20;99.90;;;;;;5094073;28;20037;-73
2023/04/09 02:36:58;;;;;;;38.45;18.30;;;7.20;99.90;;;;;;5093774;28;20027;-72
2023/04/09 02:39:24;;;;;;;40.95;17.77;;;7.20;99.90;;;;;;5091670;28;20024;-73
2023/04/09 02:41:51;;;;;;;38.42;17.73;;;7.30;99.90;;;;;;5089155;28;20024;-73
2023/04/09 02:44:16;;;;;;;36.97;17.75;;;7.20;99.90;;;;;;5090451;28;20051;-75
2023/04/09 02:46:43;;;;;;;37.30;17.77;;;7.40;99.90;;;;;;5092171;28;20040;-73
2023/04/09 02:49:09;;;;;;;31.98;15.82;;;7.40;99.90;;;;;;5091770;28;20032;-73
2023/04/09 02:51:35;;;;;;;42.65;19.33;;;7.30;99.90;;;;;;5090921;28;20031;-74
2023/04/09 02:54:01;;;;;;;39.83;18.55;;;7.20;99.90;;;;;;5090574;28;20147;-74
2023/04/09 02:56:26;;;;;;;42.00;17.00;;;7.20;99.90;;;;;;5093201;28;20032;-74
2023/04/09 02:58:52;;;;;;;33.25;16.80;;;7.10;99.90;;;;;;5094700;28;20044;-74
2023/04/09 03:01:19;;;;;;;35.13;16.77;;;7.10;99.90;;;;;;5094474;28;20062;-74
2023/04/09 03:03:45;;;;;;;31.73;17.23;;;7.30;99.90;;;;;;5095043;28;20022;-73
2023/04/09 03:06:11;;;;;;;30.98;15.85;;;7.20;99.90;;;;;;5094850;28;20108;-74
2023/04/09 03:08:37;;;;;;;31.30;16.90;;;7.20;99.90;;;;;;5094547;28;20111;-74
2023/04/09 03:11:02;;;;;;;35.25;16.45;;;7.40;99.90;;;;;;5094170;28;20028;-74
2023/04/09 03:13:28;;;;;;;34.67;16.92;;;7.40;99.90;;;;;;5094258;28;20028;-73
2023/04/09 03:15:54;;;;;;;36.65;16.88;;;7.40;99.90;;;;;;5093098;28;20044;-73
2023/04/09 03:18:20;;;;;;;34.08;17.20;;;7.40;99.90;;;;;;5093615;28;20072;-73
2023/04/09 03:20:45;;;;;;;34.90;16.90;;;7.40;99.90;;;;;;5094293;28;20043;-74
2023/04/09 03:23:11;;;;;;;31.30;16.23;;;7.40;99.90;;;;;;5094200;28;20044;-72
2023/04/09 03:25:37;;;;;;;33.50;17.20;;;7.20;99.90;;;;;;5094073;28;20455;-74
2023/04/09 03:28:03;;;;;;;45.33;18.10;;;7.30;99.90;;;;;;5093917;28;20039;-73
2023/04/09 03:30:29;;;;;;;35.63;18.48;;;7.20;99.90;;;;;;5094315;28;20044;-73
2023/04/09 03:32:55;;;;;;;36.65;18.80;;;7.10;99.90;;;;;;5093362;28;20369;-73
2023/04/09 03:35:20;;;;;;;40.08;18.17;;;7.00;99.90;;;;;;5094055;28;20036;-74
2023/04/09 03:37:46;;;;;;;41.78;18.52;;;7.10;99.90;;;;;;5093531;28;20484;-73
2023/04/09 03:40:12;;;;;;;39.92;19.05;;;7.00;99.90;;;;;;5093643;28;20059;-73
2023/04/09 03:42:38;;;;;;;41.67;20.13;;;7.00;99.90;;;;;;5094231;28;20036;-74
2023/04/09 03:45:04;;;;;;;41.63;19.20;;;6.90;99.90;;;;;;5093960;28;20499;-74
2023/04/09 03:47:31;;;;;;;42.58;18.00;;;6.90;99.90;;;;;;5093885;28;20092;-73
2023/04/09 03:49:57;;;;;;;41.75;18.33;;;6.90;99.90;;;;;;5093548;28;20032;-72
2023/04/09 03:52:23;;;;;;;43.33;19.88;;;6.80;99.90;;;;;;5093557;28;20021;-73
2023/04/09 03:54:48;;;;;;;38.08;20.05;;;6.80;99.90;;;;;;5092804;28;20081;-73
2023/04/09 03:57:14;;;;;;;47.22;21.27;;;6.90;99.90;;;;;;5094025;28;20063;-73
2023/04/09 03:59:39;;;;;;;45.83;20.85;;;6.80;99.90;;;;;;5093433;28;20115;-75
2023/04/09 04:02:05;;;;;;;40.85;19.40;;;6.90;99.90;;;;;;5093248;28;20039;-74
2023/04/09 04:04:31;;;;;;;36.97;18.90;;;7.20;99.90;;;;;;5093109;28;20028;-72
2023/04/09 04:06:56;;;;;;;41.13;19.77;;;7.20;99.90;;;;;;5092200;28;20032;-74
2023/04/09 04:09:22;;;;;;;36.45;17.90;;;7.10;99.90;;;;;;5092645;28;20020;-74
2023/04/09 04:11:48;;;;;;;44.90;19.55;;;7.10;99.90;;;;;;5093787;28;20039;-73
2023/04/09 04:14:14;;;;;;;38.00;17.63;;;7.10;99.90;;;;;;5092412;28;20465;-74
2023/04/09 04:16:40;;;;;;;35.92;17.85;;;7.30;99.90;;;;;;5093051;28;20046;-73
2023/04/09 04:19:06;;;;;;;34.83;17.80;;;7.10;99.90;;;;;;5092957;28;20042;-73
2023/04/09 04:21:31;;;;;;;37.65;18.15;;;7.10;99.90;;;;;;5093704;28;20028;-74
2023/04/09 04:23:57;;;;;;;36.65;18.67;;;7.10;99.90;;;;;;5093134;28;20398;-74
2023/04/09 04:26:23;;;;;;;40.75;18.38;;;7.10;99.90;;;;;;5093281;28;20442;-73
2023/04/09 04:28:49;;;;;;;35.20;17.08;;;7.10;99.90;;;;;;5093940;28;20399;-75
2023/04/09 04:31:15;;;;;;;37.65;18.10;;;7.00;99.90;;;;;;5092833;28;20044;-72
2023/04/09 04:33:41;;;;;;;39.42;18.52;;;7.00;99.90;;;;;;5094023;28;20032;-76
2023/04/09 04:36:14;;;;;;;36.63;17.50;;;7.10;99.90;;;;;;5093048;28;20039;-73
2023/04/09 04:38:40;;;;;;;40.65;18.33;;;7.00;99.90;;;;;;5093446;28;20028;-72
2023/04/09 04:41:06;;;;;;;33.55;16.48;;;6.90;99.90;;;;;;5092758;28;20031;-74
2023/04/09 04:43:32;;;;;;;34.25;17.33;;;6.80;99.90;;;;;;5093827;28;20062;-75
2023/04/09 04:45:58;;;;;;;38.80;17.17;;;6.80;99.90;;;;;;5093762;28;20047;-77
2023/04/09 04:48:24;;;;;;;37.33;17.50;;;6.70;99.90;;;;;;5094573;28;20442;-74
2023/04/09 04:51:01;;;;;;;32.40;16.90;;;6.70;99.90;;;;;;5092254;28;20039;-73
2023/04/09 04:53:27;;;;;;;37.05;16.73;;;6.70;99.90;;;;;;5092284;28;20040;-73
2023/04/09 04:55:53;;;;;;;33.47;17.23;;;6.60;99.90;;;;;;5094390;28;20036;-74
2023/04/09 04:58:18;;;;;;;41.13;18.48;;;6.50;99.90;;;;;;5092391;28;20374;-73
2023/04/09 05:00:45;;;;;;;38.92;17.92;;;6.50;99.90;;;;;;5091798;28;20462;-74
2023/04/09 05:03:11;;;;;;;35.78;17.10;;;6.60;99.90;;;;;;5092592;28;20102;-72
2023/04/09 05:05:37;;;;;;;38.72;18.20;;;6.40;99.90;;;;;;5092408;28;20556;-73
2023/04/09 05:08:03;;;;;;;42.22;17.67;;;6.40;99.90;;;;;;5092320;28;20115;-72
2023/04/09 05:10:28;;;;;;;41.45;18.00;;;6.40;99.90;;;;;;5092194;28;20053;-73
2023/04/09 05:12:54;;;;;;;39.97;18.45;;;6.50;99.90;;;;;;5092108;28;20449;-73
2023/04/09 05:15:20;;;;;;;32.58;15.98;;;6.50;99.90;;;;;;5092463;28;20312;-74
2023/04/09 05:17:45;;;;;;;36.97;17.08;;;6.60;99.90;;;;;;5092188;28;20028;-73
2023/04/09 05:20:11;;;;;;;36.67;16.88;;;6.60;99.90;;;;;;5091846;28;20024;-74
2023/04/09 05:22:37;;;;;;;30.90;16.02;;;6.70;99.90;;;;;;5090688;28;20414;-72
2023/04/09 05:25:03;;;;;;;36.42;17.65;;;6.80;99.90;;;;;;5091299;28;20486;-73
2023/04/09 05:27:29;;;;;;;33.47;17.23;;;6.70;99.90;;;;;;5092029;28;20111;-73
2023/04/09 05:29:54;;;;;;;36.88;17.25;;;6.70;99.90;;;;;;5090412;28;20156;-74
2023/04/09 05:32:20;;;;;;;38.08;17.90;;;6.70;99.90;;;;;;5091772;28;20453;-71
2023/04/09 05:34:46;;;;;;;42.10;18.45;;;6.60;99.90;;;;;;5091737;28;20123;-74
2023/04/09 05:37:12;;;;;;;36.40;17.15;;;6.60;99.90;;;;;;5091884;28;20040;-74
2023/04/09 05:39:38;;;;;;;39.97;17.05;;;6.50;99.90;;;;;;5092077;28;20016;-73
2023/04/09 05:42:04;;;;;;;42.42;17.63;;;6.50;99.90;;;;;;5091812;28;20039;-73
2023/04/09 05:44:30;;;;;;;43.60;18.10;;;6.50;99.90;;;;;;5091560;28;20070;-74
2023/04/09 05:46:56;;;;;;;51.85;18.95;;;6.50;99.90;;;;;;5090324;28;20036;-74
2023/04/09 05:49:21;;;;;;;48.60;19.08;;;6.60;99.90;;;;;;5091328;28;20579;-73
2023/04/09 05:51:48;;;;;;;54.65;21.00;;;6.60;99.90;;;;;;5091316;28;20077;-76
2023/04/09 05:54:14;;;;;;;60.47;20.80;;;6.60;99.90;;;;;;5093483;28;20087;-73
2023/04/09 05:56:41;;;;;;;53.45;20.60;;;6.50;99.90;;;;;;5086704;28;20147;-74
2023/04/09 05:59:07;;;;;;;58.47;21.83;;;6.60;99.90;;;;;;5072431;28;20021;-76
2023/04/09 06:01:33;;;;;;;53.78;20.30;;;6.60;99.90;;;;;;5073197;28;20040;-75
2023/04/09 06:03:58;;;;;;;51.63;21.10;;;6.60;99.90;;;;;;5078337;28;20072;-74
2023/04/09 06:06:24;;;;;;;58.20;21.73;;;6.70;99.90;;;;;;5076068;28;20300;-74
2023/04/09 06:08:50;;;;;;;57.75;21.42;;;6.70;99.90;;;;;;5075196;28;20415;-76
2023/04/09 06:11:15;;;;;;;54.70;21.42;;;6.70;99.90;;;;;;5072311;28;20045;-74
2023/04/09 06:13:41;;;;;;;50.75;20.08;;;6.80;99.90;;;;;;5070829;28;20485;-74
2023/04/09 06:16:07;;;;;;;54.72;20.55;;;6.80;99.90;;;;;;5069561;28;20564;-74
2023/04/09 06:18:34;;;;;;;51.40;20.10;;;6.80;99.90;;;;;;5071318;28;20120;-73
2023/04/09 06:21:04;;;;;;;50.17;20.40;;;6.90;99.90;;;;;;5069644;28;20033;-72
2023/04/09 06:23:29;;;;;;;49.33;18.63;;;6.90;99.90;;;;;;5070531;28;20067;-74
2023/04/09 06:25:55;;;;;;;47.40;18.55;;;6.90;99.90;;;;;;5070432;28;20053;-74
2023/04/09 06:28:21;;;;;;;44.80;19.23;;;6.90;99.90;;;;;;5070306;28;20028;-73
2023/04/09 06:30:47;;;;;;;47.78;19.27;;;7.00;99.90;;;;;;5071238;28;20068;-75
2023/04/09 06:33:13;;;;;;;42.47;17.80;;;7.00;99.90;;;;;;5074087;28;20019;-71
2023/04/09 06:35:39;;;;;;;39.60;18.40;;;7.10;99.90;;;;;;5071028;28;20021;-71
2023/04/09 06:38:05;;;;;;;37.47;16.30;;;7.30;99.90;;;;;;5072049;28;20127;-73
2023/04/09 06:40:31;;;;;;;36.03;17.02;;;7.50;99.90;;;;;;5071836;28;20040;-75
2023/04/09 06:42:57;;;;;;;34.30;16.20;;;7.60;99.90;;;;;;5069022;28;20025;-72
2023/04/09 06:45:22;;;;;;;37.15;17.15;;;7.70;99.90;;;;;;5070647;28;20351;-73
2023/04/09 06:47:48;;;;;;;40.25;18.02;;;7.80;99.90;;;;;;5070482;28;20039;-75
2023/04/09 06:50:14;;;;;;;36.22;17.52;;;7.70;99.90;;;;;;5069377;28;20044;-74
2023/04/09 06:52:40;;;;;;;41.08;18.15;;;7.60;99.90;;;;;;5069011;28;20029;-71
2023/04/09 06:55:06;;;;;;;44.83;20.77;;;7.70;99.90;;;;;;5070048;28;20032;-70
2023/04/09 06:57:32;;;;;;;45.22;20.73;;;7.90;99.90;;;;;;5070617;28;20051;-69
2023/04/09 06:59:57;;;;;;;53.70;21.83;;;8.00;99.90;;;;;;5069984;28;20035;-72
2023/04/09 07:02:23;;;;;;;56.97;22.27;;;8.10;99.90;;;;;;5068887;28;20045;-77
2023/04/09 07:04:49;;;;;;;60.38;22.33;;;8.20;99.90;;;;;;5070059;28;20037;-71
2023/04/09 07:07:15;;;;;;;56.63;20.70;;;8.10;99.90;;;;;;5068751;28;20110;-73
2023/04/09 07:09:41;;;;;;;58.85;23.00;;;8.30;99.90;;;;;;5069243;28;20039;-72
2023/04/09 07:12:07;;;;;;;56.22;23.35;;;8.40;99.90;;;;;;5069746;28;20488;-72
2023/04/09 07:14:33;;;;;;;65.00;24.70;;;8.40;99.90;;;;;;5068586;28;20032;-71
2023/04/09 07:16:58;;;;;;;58.25;24.40;;;8.50;99.90;;;;;;5070001;28;20450;-72
2023/04/09 07:19:24;;;;;;;53.05;22.58;;;8.60;99.90;;;;;;5068838;28;20041;-73
2023/04/09 07:21:49;;;;;;;55.40;23.00;;;8.50;99.90;;;;;;5069182;28;20347;-71
2023/04/09 07:24:15;;;;;;;51.85;23.30;;;8.60;99.90;;;;;;5070433;28;20051;-74
2023/04/09 07:26:41;;;;;;;45.67;21.50;;;8.70;99.90;;;;;;5068990;28;20060;-70
2023/04/09 07:29:07;;;;;;;48.30;21.70;;;8.70;99.90;;;;;;5070493;28;20058;-72
2023/04/09 07:31:32;;;;;;;45.03;20.90;;;8.70;99.90;;;;;;5069905;28;20048;-70
2023/04/09 07:33:58;;;;;;;52.45;22.15;;;8.80;99.90;;;;;;5069753;28;20525;-71
2023/04/09 07:36:24;;;;;;;47.10;21.90;;;8.90;99.90;;;;;;5070049;28;20077;-71
2023/04/09 07:38:50;;;;;;;45.40;21.40;;;8.90;99.90;;;;;;5070160;28;20033;-71
2023/04/09 07:41:16;;;;;;;45.50;22.05;;;9.00;99.90;;;;;;5070129;28;20032;-72
2023/04/09 07:43:41;;;;;;;51.13;22.77;;;9.10;99.90;;;;;;5074011;28;20554;-73
2023/04/09 07:46:07;;;;;;;46.33;22.25;;;9.10;99.90;;;;;;5073670;28;20029;-73
2023/04/09 07:48:33;;;;;;;47.42;22.75;;;9.20;99.90;;;;;;5074439;28;20029;-70
2023/04/09 07:50:59;;;;;;;50.70;23.02;;;9.30;99.90;;;;;;5073665;28;20362;-72
2023/04/09 07:53:25;;;;;;;50.97;22.75;;;9.60;99.90;;;;;;5073783;28;20119;-73
2023/04/09 07:55:50;;;;;;;49.45;23.42;;;9.40;99.90;;;;;;5072323;28;20044;-69
2023/04/09 07:58:16;;;;;;;54.38;24.65;;;9.50;99.90;;;;;;5073006;28;20040;-70
2023/04/09 08:00:42;;;;;;;47.28;22.02;;;9.50;99.90;;;;;;5073525;28;20032;-70
2023/04/09 08:03:08;;;;;;;47.40;21.50;;;9.50;99.90;;;;;;5073385;28;20033;-70
2023/04/09 08:05:35;;;;;;;48.42;21.90;;;9.60;99.90;;;;;;5073328;28;20111;-73
2023/04/09 08:08:01;;;;;;;50.00;23.45;;;9.60;99.90;;;;;;5072401;28;20119;-70
2023/04/09 08:10:26;;;;;;;45.97;22.30;;;9.70;99.90;;;;;;5073156;28;20115;-70
2023/04/09 08:12:52;;;;;;;46.78;21.90;;;9.80;99.90;;;;;;5072059;28;20032;-72
2023/04/09 08:15:19;;;;;;;48.60;22.60;;;9.90;99.90;;;;;;5073917;28;20465;-73
2023/04/09 08:17:45;;;;;;;50.13;23.55;;;9.90;99.90;;;;;;5072774;28;20040;-69
2023/04/09 08:20:11;;;;;;;47.70;22.70;;;10.00;99.90;;;;;;5073173;28;20024;-74
2023/04/09 08:22:37;;;;;;;50.38;23.33;;;9.90;99.90;;;;;;5073316;28;20470;-71
2023/04/09 08:25:02;;;;;;;42.72;21.17;;;10.00;99.90;;;;;;5072691;28;20031;-72
2023/04/09 08:27:28;;;;;;;41.42;20.98;;;9.90;99.90;;;;;;5073060;28;20032;-69
2023/04/09 08:29:54;;;;;;;44.53;20.77;;;9.80;99.90;;;;;;5072618;28;20040;-72
2023/04/09 08:32:20;;;;;;;45.72;22.45;;;9.80;99.90;;;;;;5072592;28;20029;-72
2023/04/09 08:34:45;;;;;;;42.03;20.98;;;9.70;99.90;;;;;;5072244;28;20127;-72
2023/04/09 08:37:11;;;;;;;49.42;24.42;;;9.80;99.90;;;;;;5072354;28;20119;-69
2023/04/09 08:39:37;;;;;;;52.95;24.73;;;9.90;99.90;;;;;;5073105;28;20017;-70
2023/04/09 08:42:06;;;;;;;55.25;25.35;;;10.00;99.90;;;;;;5079411;28;20089;-71
2023/04/09 08:44:31;;;;;;;57.95;29.63;;;10.10;99.90;;;;;;5077033;28;20032;-71
2023/04/09 08:46:59;;;;;;;51.88;26.73;;;9.80;99.90;;;;;;5073906;28;20035;-70
2023/04/09 08:49:24;;;;;;;56.33;27.65;;;9.90;99.90;;;;;;5082943;28;20028;-70
2023/04/09 08:51:50;;;;;;;58.58;28.73;;;10.00;99.90;;;;;;5083910;28;20458;-71
2023/04/09 08:54:18;;;;;;;59.80;31.13;;;10.10;99.90;;;;;;5082051;28;20048;-71
2023/04/09 08:56:47;;;;;;;58.60;29.58;;;10.20;99.90;;;;;;5076170;28;20537;-71
2023/04/09 08:59:19;;;;;;;58.55;29.45;;;10.10;99.90;;;;;;5075133;28;20029;-71
2023/04/09 09:01:46;;;;;;;54.47;29.00;;;10.60;99.90;;;;;;5080386;28;20112;-72
2023/04/09 09:04:12;;;;;;;53.13;26.73;;;11.20;99.90;;;;;;5081364;28;20435;-72
2023/04/09 09:06:40;;;;;;;51.35;23.63;;;11.70;98.90;;;;;;5082305;28;20285;-73
2023/04/09 09:09:14;;;;;;;47.53;24.30;;;11.90;98.20;;;;;;5076795;28;20134;-72
2023/04/09 09:11:49;;;;;;;47.95;25.60;;;12.10;97.90;;;;;;5078762;28;20028;-73
2023/04/09 09:14:18;;;;;;;53.40;26.73;;;12.00;97.50;;;;;;5075267;28;20033;-71
2023/04/09 09:17:03;;;;;;;50.10;25.60;;;12.00;97.70;;;;;;5072582;28;20063;-72
2023/04/09 09:19:32;;;;;;;52.70;25.75;;;12.00;97.40;;;;;;5071530;28;20032;-71
2023/04/09 09:22:00;;;;;;;51.40;25.02;;;11.90;97.30;;;;;;5070285;28;20120;-71
2023/04/09 09:24:26;;;;;;;50.50;23.88;;;11.80;97.70;;;;;;5072174;28;20502;-69
2023/04/09 09:26:56;;;;;;;50.97;24.63;;;11.80;97.60;;;;;;5070605;28;20374;-70
2023/04/09 09:29:21;;;;;;;53.90;26.13;;;11.80;97.40;;;;;;5071623;28;20184;-71
2023/04/09 09:31:48;;;;;;;62.10;27.83;;;11.50;97.20;;;;;;5071181;28;20143;-70
2023/04/09 09:34:18;;;;;;;51.28;24.55;;;11.60;97.40;;;;;;5071503;28;20139;-71
2023/04/09 09:36:44;;;;;;;55.55;25.60;;;11.40;97.50;;;;;;5074360;28;20351;-70
2023/04/09 09:39:12;;;;;;;51.28;25.23;;;11.50;97.50;;;;;;5075533;28;20079;-71
2023/04/09 09:41:43;;;;;;;54.30;25.98;;;11.50;97.40;;;;;;5072957;28;20111;-69
2023/04/09 09:44:11;;;;;;;54.28;25.63;;;11.60;97.80;;;;;;5071528;28;20020;-71
2023/04/09 09:46:38;;;;;;;63.55;28.25;;;11.70;97.50;;;;;;5070175;28;20055;-69
2023/04/09 09:49:07;;;;;;;55.65;28.10;;;11.70;97.40;;;;;;5069930;28;20020;-69
2023/04/09 09:51:36;;;;;;;60.20;26.95;;;11.70;97.20;;;;;;5071480;28;20081;-69
2023/04/09 09:54:02;;;;;;;60.97;29.13;;;11.70;97.40;;;;;;5071197;28;20043;-69
2023/04/09 09:56:34;;;;;;;62.17;28.52;;;11.70;97.30;;;;;;5070841;28;20513;-70
2023/04/09 09:59:08;;;;;;;64.82;31.92;;;11.70;97.40;;;;;;5070948;28;20041;-70
2023/04/09 10:01:35;;;;;;;59.97;31.05;;;11.70;97.20;;;;;;5069615;28;20078;-71
2023/04/09 10:04:03;;;;;;;61.47;30.95;;;11.60;97.00;;;;;;5069930;28;20028;-70
2023/04/09 10:06:32;;;;;;;65.00;32.10;;;11.60;96.90;;;;;;5071066;28;20074;-70
2023/04/09 10:09:05;;;;;;;63.05;32.47;;;11.40;96.90;;;;;;5070564;28;20024;-70
2023/04/09 10:11:36;;;;;;;59.15;29.25;;;11.50;97.30;;;;;;5070693;28;20029;-70
2023/04/09 10:14:04;;;;;;;61.35;30.33;;;11.70;97.20;;;;;;5070540;28;20045;-69
2023/04/09 10:16:30;;;;;;;64.88;32.13;;;11.90;97.10;;;;;;5070501;28;20040;-72
2023/04/09 10:18:58;;;;;;;61.45;31.20;;;11.90;97.00;;;;;;5070666;28;20021;-74
2023/04/09 10:21:34;;;;;;;57.33;29.10;;;12.00;96.90;;;;;;5071161;28;20100;-72
2023/04/09 10:24:04;;;;;;;55.58;27.83;;;12.10;97.10;;;;;;5070568;28;20024;-72
2023/04/09 10:26:32;;;;;;;55.55;26.80;;;12.40;97.20;;;;;;5070428;28;20033;-72
2023/04/09 10:29:15;;;;;;;49.65;26.00;;;12.60;96.30;;;;;;5069866;28;20389;-74
2023/04/09 10:32:05;;;;;;;52.40;26.88;;;12.70;96.30;;;;;;5070863;28;20049;-73
2023/04/09 10:34:38;;;;;;;47.88;25.17;;;12.80;95.80;;;;;;5070836;28;20108;-75
2023/04/09 10:37:08;;;;;;;46.78;25.48;;;12.90;95.50;;;;;;5070569;28;20352;-75
2023/04/09 10:39:43;;;;;;;49.60;27.27;;;12.90;95.30;;;;;;5070777;28;20052;-75
2023/04/09 10:42:27;;;;;;;46.33;24.40;;;13.20;95.80;;;;;;5070550;28;20025;-75
2023/04/09 10:45:15;;;;;;;45.10;24.48;;;13.70;95.10;;;;;;5070048;28;20024;-74
2023/04/09 10:47:42;;;;;;;43.90;22.48;;;14.00;94.50;;;;;;5071786;28;20033;-74
2023/04/09 10:50:15;;;;;;;46.80;23.02;;;14.00;94.30;;;;;;5070990;28;20032;-74
2023/04/09 10:52:43;;;;;;;42.97;23.50;;;14.60;93.90;;;;;;5070513;28;20090;-74
2023/04/09 10:55:28;;;;;;;44.70;22.77;;;14.60;92.90;;;;;;5070612;28;20036;-72
2023/04/09 10:57:54;;;;;;;42.00;23.60;;;14.60;92.60;;;;;;5069967;28;20054;-78
2023/04/09 11:00:20;;;;;;;40.58;22.27;;;14.30;93.30;;;;;;5070749;28;20013;-70
2023/04/09 11:03:01;;;;;;;42.65;22.83;;;14.10;92.90;;;;;;5068802;28;20032;-75
2023/04/09 11:05:37;;;;;;;40.40;21.77;;;13.90;93.00;;;;;;5070135;28;20074;-76
2023/04/09 11:08:13;;;;;;;43.95;23.45;;;13.90;93.10;;;;;;5068854;28;20040;-73
2023/04/09 11:10:41;;;;;;;41.03;21.83;;;13.70;93.20;;;;;;5070055;28;20033;-74
2023/04/09 11:13:11;;;;;;;38.97;20.30;;;13.40;93.60;;;;;;5070237;28;20020;-73
2023/04/09 11:15:38;;;;;;;41.90;22.05;;;13.40;93.70;;;;;;5071253;28;20331;-70
2023/04/09 11:18:12;;;;;;;42.15;21.00;;;13.20;93.70;;;;;;5073922;28;20043;-74
2023/04/09 11:20:39;;;;;;;40.78;21.02;;;12.90;94.00;;;;;;5072856;28;20029;-74
2023/04/09 11:23:05;;;;;;;40.42;22.60;;;12.80;94.30;;;;;;5072588;28;20482;-75
2023/04/09 11:25:32;;;;;;;43.80;22.48;;;12.90;94.30;;;;;;5073759;28;20032;-73
2023/04/09 11:28:01;;;;;;;39.67;20.43;;;12.70;94.40;;;;;;5073645;28;20379;-73
2023/04/09 11:30:27;;;;;;;41.53;19.92;;;12.80;94.50;;;;;;5074006;28;20193;-75
2023/04/09 11:32:53;;;;;;;38.00;18.70;;;12.80;94.50;;;;;;5072784;28;20514;-74
2023/04/09 11:35:21;;;;;;;37.03;18.38;;;12.60;94.40;;;;;;5072496;28;20107;-74
2023/04/09 11:37:48;;;;;;;42.05;19.05;;;12.50;94.70;;;;;;5073733;28;20432;-75
2023/04/09 11:40:18;;;;;;;39.95;20.30;;;12.40;95.00;;;;;;5073500;28;20131;-76
2023/04/09 11:42:45;;;;;;;41.80;21.38;;;12.40;94.90;;;;;;5074170;28;20442;-74
2023/04/09 11:45:12;;;;;;;44.22;21.08;;;12.40;95.10;;;;;;5073842;28;20029;-75
2023/04/09 11:47:47;;;;;;;45.70;22.02;;;12.30;95.20;;;;;;5073098;28;20418;-75
2023/04/09 11:50:15;;;;;;;37.38;19.25;;;12.30;95.30;;;;;;5072803;28;20390;-73
2023/04/09 11:52:41;;;;;;;50.15;23.50;;;12.00;95.30;;;;;;5072009;28;20115;-70
2023/04/09 11:55:08;;;;;;;42.17;22.52;;;12.00;95.60;;;;;;5073209;28;20170;-71
2023/04/09 11:57:45;;;;;;;43.53;20.58;;;11.80;95.70;;;;;;5073477;28;20029;-71
2023/04/09 12:00:15;;;;;;;39.33;20.13;;;11.80;95.70;;;;;;5072968;28;20054;-70
2023/04/09 12:02:46;;;;;;;35.50;18.17;;;11.70;95.30;;;;;;5071438;28;20036;-70
2023/04/09 12:05:21;;;;;;;35.97;17.27;;;11.80;95.20;;;;;;5072942;28;20131;-71
2023/04/09 12:07:47;;;;;;;44.38;19.10;;;11.80;95.40;;;;;;5072768;28;20036;-72
2023/04/09 12:10:13;;;;;;;39.47;19.27;;;12.10;95.30;;;;;;5072883;28;20024;-71
2023/04/09 12:12:43;;;;;;;43.38;19.48;;;12.20;95.20;;;;;;5073492;28;20095;-71
2023/04/09 12:15:11;;;;;;;41.53;20.52;;;12.30;94.70;;;;;;5072829;28;20076;-75
2023/04/09 12:17:37;;;;;;;45.22;20.65;;;12.50;94.60;;;;;;5073208;28;20050;-74
2023/04/09 12:20:02;;;;;;;38.63;19.77;;;12.70;94.40;;;;;;5073043;28;20028;-75
2023/04/09 12:22:29;;;;;;;53.20;25.45;;;12.80;94.10;;;;;;5073001;28;20036;-75
2023/04/09 12:24:58;;;;;;;43.50;22.30;;;12.90;94.00;;;;;;5072737;28;20012;-75
2023/04/09 12:27:24;;;;;;;40.83;19.25;;;12.80;93.70;;;;;;5072507;28;20085;-75
2023/04/09 12:29:49;;;;;;;38.30;18.60;;;12.70;93.50;;;;;;5072517;28;20040;-75
2023/04/09 12:32:15;;;;;;;37.95;19.58;;;12.90;93.80;;;;;;5073092;28;20036;-75
2023/04/09 12:34:40;;;;;;;45.88;21.90;;;13.20;93.70;;;;;;5072899;28;20041;-74